Time;durP1;ratioP1;P1;durP2;ratioP2;P2;SDS_P1;SDS_P2;PMS_P1;PMS_P2;Temp;Humidity;BMP_temperature;BMP_pressure;BME280_temperature;BME280_humidity;BME280_pressure;Samples;Min_cycle;Max_cycle;Signal;HPM_P1;HPM_P2
2021/04/17 13:22:00;;;;;;;30.00;11.35;;;358.40;1177.60;;;;;;5110817;27;20376;-61
2021/04/17 13:24:26;;;;;;;17.63;10.95;;;358.70;1126.40;;;;;;5110785;28;20370;-64
2021/04/17 13:26:52;;;;;;;19.00;12.07;;;359.00;1100.80;;;;;;5110063;28;20028;-72
2021/04/17 13:29:18;;;;;;;27.63;13.02;;;359.20;1075.20;;;;;;5110796;28;20020;-63
2021/04/17 13:31:43;;;;;;;15.73;10.80;;;384.10;1049.60;;;;;;5109411;28;20024;-62
2021/04/17 13:34:09;;;;;;;15.05;10.77;;;384.40;1024.00;;;;;;5110127;28;20067;-62
2021/04/17 13:36:35;;;;;;;27.67;10.93;;;384.50;972.80;;;;;;5110305;28;20016;-61
2021/04/17 13:39:01;;;;;;;14.35;10.77;;;384.70;998.40;;;;;;5110380;28;20032;-62
2021/04/17 13:41:27;;;;;;;13.52;10.65;;;384.90;972.80;;;;;;5109614;28;20044;-62
2021/04/17 13:43:53;;;;;;;11.80;10.05;;;409.70;998.40;;;;;;5108266;28;20366;-63
2021/04/17 13:46:19;;;;;;;13.02;9.35;;;409.80;998.40;;;;;;5109167;28;20023;-62
2021/04/17 13:48:44;;;;;;;14.57;9.57;;;409.80;972.80;;;;;;5108705;28;20028;-64
2021/04/17 13:51:10;;;;;;;72.22;13.25;;;409.80;972.80;;;;;;5108333;28;20374;-62
2021/04/17 13:53:36;;;;;;;14.50;9.05;;;410.00;972.80;;;;;;5108432;28;20073;-62
2021/04/17 13:56:02;;;;;;;11.75;8.25;;;410.10;947.20;;;;;;5108765;28;20016;-61
2021/04/17 13:58:28;;;;;;;12.88;9.75;;;410.00;947.20;;;;;;5108342;28;20073;-61
2021/04/17 14:00:54;;;;;;;12.65;9.55;;;410.00;947.20;;;;;;5108706;28;20405;-62
2021/04/17 14:03:20;;;;;;;12.95;9.20;;;410.00;947.20;;;;;;5108594;28;20024;-63
2021/04/17 14:05:45;;;;;;;11.93;8.48;;;410.00;947.20;;;;;;5107865;28;20028;-62
2021/04/17 14:08:11;;;;;;;12.02;9.82;;;410.00;947.20;;;;;;5108676;28;20043;-63
2021/04/17 14:10:38;;;;;;;11.85;9.60;;;410.00;921.60;;;;;;5108610;28;20012;-63
2021/04/17 14:13:04;;;;;;;12.15;8.82;;;410.00;921.60;;;;;;5108091;28;20024;-62
2021/04/17 14:15:30;;;;;;;12.40;9.10;;;410.00;947.20;;;;;;5108597;28;20016;-63
2021/04/17 14:17:57;;;;;;;11.82;10.07;;;410.00;921.60;;;;;;5108909;28;20020;-63
2021/04/17 14:20:25;;;;;;;13.77;11.73;;;410.00;921.60;;;;;;5107955;28;20083;-62
2021/04/17 14:22:52;;;;;;;12.40;10.23;;;410.00;921.60;;;;;;5108451;28;20174;-62
2021/04/17 14:25:18;;;;;;;12.20;8.57;;;409.90;921.60;;;;;;5107265;28;20028;-63
2021/04/17 14:27:45;;;;;;;11.10;9.15;;;409.80;947.20;;;;;;5108227;28;20351;-62
2021/04/17 14:30:11;;;;;;;11.43;8.88;;;409.80;921.60;;;;;;5109295;28;20487;-62
2021/04/17 14:32:37;;;;;;;11.95;8.85;;;409.70;921.60;;;;;;5099187;28;20409;-62
2021/04/17 14:35:04;;;;;;;9.60;8.35;;;409.60;921.60;;;;;;5093874;28;20020;-62
2021/04/17 14:37:30;;;;;;;104.63;14.27;;;384.90;896.00;;;;;;5095917;28;20032;-67
2021/04/17 14:39:56;;;;;;;57.97;11.77;;;384.90;921.60;;;;;;5095608;28;20505;-69
2021/04/17 14:42:23;;;;;;;118.32;14.95;;;384.70;921.60;;;;;;5093898;28;20035;-64
2021/04/17 14:44:48;;;;;;;35.33;12.55;;;384.70;947.20;;;;;;5093754;28;20032;-65
2021/04/17 14:47:14;;;;;;;18.90;12.05;;;384.60;947.20;;;;;;5095538;28;20474;-71
2021/04/17 14:49:40;;;;;;;16.65;11.43;;;384.50;947.20;;;;;;5095338;28;20024;-64
2021/04/17 14:52:06;;;;;;;15.90;9.40;;;384.40;947.20;;;;;;5093729;28;20035;-63
2021/04/17 14:54:32;;;;;;;13.05;9.60;;;384.30;947.20;;;;;;5093571;28;20036;-64
2021/04/17 14:56:59;;;;;;;14.68;11.50;;;384.20;972.80;;;;;;5095142;28;20059;-64
2021/04/17 14:59:24;;;;;;;13.63;10.43;;;384.20;972.80;;;;;;5095188;28;20024;-63
2021/04/17 15:01:51;;;;;;;13.20;9.65;;;384.20;998.40;;;;;;5095001;28;20036;-63
2021/04/17 15:04:16;;;;;;;25.65;14.48;;;384.10;998.40;;;;;;5094803;28;20039;-65
2021/04/17 15:06:42;;;;;;;28.08;15.55;;;384.00;998.40;;;;;;5094866;28;20024;-65
2021/04/17 15:09:09;;;;;;;47.63;18.35;;;384.00;1024.00;;;;;;5095318;28;20023;-64
2021/04/17 15:11:35;;;;;;;16.20;11.95;;;359.30;1049.60;;;;;;5094735;28;20020;-65
2021/04/17 15:14:01;;;;;;;18.85;12.68;;;359.30;1024.00;;;;;;5095185;28;20020;-64
2021/04/17 15:16:28;;;;;;;24.25;14.00;;;359.20;1049.60;;;;;;5095121;28;20020;-65
2021/04/17 15:19:02;;;;;;;22.52;15.07;;;359.10;1049.60;;;;;;5094797;28;20557;-64
2021/04/17 15:21:30;;;;;;;22.40;13.35;;;359.10;1049.60;;;;;;5094643;28;20058;-65
2021/04/17 15:23:56;;;;;;;25.67;15.30;;;359.00;1075.20;;;;;;5093653;28;20377;-64
2021/04/17 15:26:26;;;;;;;31.25;17.60;;;359.00;1100.80;;;;;;5093927;28;20088;-65
2021/04/17 15:28:54;;;;;;;27.38;17.13;;;358.90;1100.80;;;;;;5094589;28;20469;-63
2021/04/17 15:31:20;;;;;;;24.80;15.55;;;358.90;1126.40;;;;;;5094649;28;20028;-64
2021/04/17 15:33:46;;;;;;;20.65;13.07;;;358.80;1126.40;;;;;;5094121;28;20371;-64
2021/04/17 15:36:13;;;;;;;18.48;13.45;;;358.70;1100.80;;;;;;5094373;28;20478;-65
2021/04/17 15:38:39;;;;;;;21.30;14.07;;;358.60;1126.40;;;;;;5094431;28;20032;-62
2021/04/17 15:41:08;;;;;;;22.23;14.25;;;358.60;1126.40;;;;;;5093823;28;20501;-64
2021/04/17 15:43:35;;;;;;;29.00;16.52;;;358.60;1152.00;;;;;;5092304;28;20497;-63
2021/04/17 15:46:10;;;;;;;21.27;13.90;;;358.50;1152.00;;;;;;5092297;28;20068;-65
2021/04/17 15:48:38;;;;;;;18.35;12.45;;;358.50;1152.00;;;;;;5092731;28;20532;-65
2021/04/17 15:51:05;;;;;;;23.58;14.13;;;358.40;1177.60;;;;;;5103350;28;20040;-64
2021/04/17 15:53:31;;;;;;;23.52;13.65;;;358.40;1177.60;;;;;;5093567;28;20027;-65
2021/04/17 15:55:57;;;;;;;25.80;14.25;;;333.60;1177.60;;;;;;5093773;28;20024;-65
2021/04/17 16:14:38;;;;;;;29.27;17.90;;;333.30;1254.40;;;;;;5093639;28;20097;-65
2021/04/17 16:17:05;;;;;;;25.58;17.70;;;333.30;1254.40;;;;;;5093460;28;20422;-65
2021/04/17 16:19:30;;;;;;;21.65;15.77;;;333.30;1254.40;;;;;;5091209;28;20358;-64
2021/04/17 16:21:56;;;;;;;19.13;14.25;;;333.10;1254.40;;;;;;5092621;28;20055;-62
2021/04/17 16:24:22;;;;;;;18.25;14.05;;;333.10;1280.00;;;;;;5094047;28;20036;-62
2021/04/17 16:26:49;;;;;;;18.20;14.30;;;333.00;1280.00;;;;;;5092412;28;20536;-62
2021/04/17 16:29:18;;;;;;;22.02;15.20;;;333.00;1280.00;;;;;;5095194;28;20075;-63
2021/04/17 16:31:44;;;;;;;25.20;17.15;;;333.00;1280.00;;;;;;5095094;28;20442;-63
2021/04/17 16:34:10;;;;;;;27.80;16.83;;;333.00;1280.00;;;;;;5094617;28;20397;-63
2021/04/17 16:36:36;;;;;;;26.88;15.05;;;333.00;1280.00;;;;;;5094546;28;20071;-64
2021/04/17 16:39:06;;;;;;;17.48;12.95;;;332.90;1280.00;;;;;;5094749;28;20023;-62
2021/04/17 16:41:33;;;;;;;32.08;17.15;;;332.90;1305.60;;;;;;5094417;28;20039;-63
2021/04/17 16:43:58;;;;;;;22.48;12.35;;;332.90;1408.00;;;;;;5094271;28;20024;-62
2021/04/17 16:46:25;;;;;;;15.95;11.73;;;332.80;1331.20;;;;;;5094079;28;20024;-64
2021/04/17 16:48:51;;;;;;;13.38;10.75;;;332.80;1331.20;;;;;;5094222;28;20134;-64
2021/04/17 16:51:18;;;;;;;17.17;11.18;;;332.80;1331.20;;;;;;5094273;28;20055;-64
2021/04/17 16:53:43;;;;;;;16.05;11.50;;;332.80;1331.20;;;;;;5094022;28;20031;-63
2021/04/17 16:56:09;;;;;;;16.83;13.13;;;308.10;1305.60;;;;;;5092072;28;20031;-64
2021/04/17 16:58:35;;;;;;;16.13;12.00;;;308.10;1305.60;;;;;;5094092;28;20374;-63
2021/04/17 17:01:01;;;;;;;20.65;13.25;;;308.10;1331.20;;;;;;5094155;28;20032;-64
2021/04/17 17:03:27;;;;;;;18.08;13.02;;;307.90;1331.20;;;;;;5093828;28;20016;-64
2021/04/17 17:05:52;;;;;;;15.68;12.10;;;308.00;1331.20;;;;;;5094071;28;20024;-62
2021/04/17 17:08:18;;;;;;;17.45;11.68;;;307.90;1331.20;;;;;;5093917;28;20024;-64
2021/04/17 17:10:45;;;;;;;16.27;11.90;;;307.90;1356.80;;;;;;5094551;28;20020;-64
2021/04/17 17:13:10;;;;;;;14.38;11.20;;;307.90;1356.80;;;;;;5093856;28;20080;-61
2021/04/17 17:15:36;;;;;;;12.38;10.20;;;307.90;1382.40;;;;;;5092519;28;20036;-63
2021/04/17 17:18:02;;;;;;;13.00;10.68;;;307.80;1382.40;;;;;;5093882;28;20024;-64
2021/04/17 17:20:28;;;;;;;13.70;10.60;;;307.80;1382.40;;;;;;5093777;28;20044;-64
2021/04/17 17:22:54;;;;;;;13.43;10.90;;;307.70;1382.40;;;;;;5093960;28;20027;-63
2021/04/17 17:25:19;;;;;;;11.73;10.18;;;307.70;1408.00;;;;;;5093287;28;20020;-63
2021/04/17 17:27:45;;;;;;;14.43;11.10;;;307.70;1408.00;;;;;;5093841;28;20111;-64
2021/04/17 17:30:14;;;;;;;14.38;10.40;;;307.70;1408.00;;;;;;5093731;28;20153;-64
2021/04/17 17:32:40;;;;;;;13.98;10.77;;;307.60;1433.60;;;;;;5093902;28;20035;-64
2021/04/17 17:35:07;;;;;;;12.15;10.65;;;307.60;1459.20;;;;;;5094213;28;20099;-63
2021/04/17 17:37:33;;;;;;;14.50;10.93;;;307.60;1459.20;;;;;;5093340;28;20036;-64
2021/04/17 17:39:59;;;;;;;15.25;11.68;;;307.50;1459.20;;;;;;5093613;28;20078;-63
2021/04/17 17:42:25;;;;;;;15.02;11.90;;;307.50;1459.20;;;;;;5093597;28;20024;-64
2021/04/17 17:44:51;;;;;;;13.93;12.25;;;307.50;1484.80;;;;;;5093234;28;20032;-62
2021/04/17 17:47:16;;;;;;;13.68;11.55;;;307.50;1484.80;;;;;;5093797;28;20028;-61
2021/04/17 17:49:42;;;;;;;14.93;10.85;;;307.40;1510.40;;;;;;5093881;28;20420;-63
2021/04/17 17:52:08;;;;;;;16.52;12.50;;;307.40;1510.40;;;;;;5093621;28;20024;-64
2021/04/17 17:54:34;;;;;;;15.48;12.55;;;307.30;1510.40;;;;;;5093503;28;20024;-64
2021/04/17 17:57:00;;;;;;;20.35;14.10;;;307.30;1510.40;;;;;;5093095;28;20024;-64
2021/04/17 17:59:26;;;;;;;23.02;12.75;;;307.30;1536.00;;;;;;5093652;28;20555;-64
2021/04/17 18:01:52;;;;;;;16.08;12.10;;;307.30;1536.00;;;;;;5093547;28;20060;-63
2021/04/17 18:04:18;;;;;;;15.77;12.23;;;307.20;1536.00;;;;;;5093110;28;20453;-63
2021/04/17 18:06:46;;;;;;;23.73;17.15;;;307.20;1536.00;;;;;;5092371;28;20040;-64
2021/04/17 18:09:13;;;;;;;19.27;15.00;;;307.20;1536.00;;;;;;5097481;28;20055;-62
2021/04/17 18:11:38;;;;;;;26.40;15.57;;;307.20;1561.60;;;;;;5097149;28;20051;-63
2021/04/17 18:14:04;;;;;;;23.20;15.27;;;307.30;1664.00;;;;;;5096364;28;20044;-62
2021/04/17 18:16:30;;;;;;;23.13;13.82;;;307.30;1587.20;;;;;;5095546;28;20389;-61
2021/04/17 18:19:00;;;;;;;18.42;13.70;;;307.30;1561.60;;;;;;5095663;28;20024;-61
2021/04/17 18:21:26;;;;;;;20.63;13.90;;;307.20;1561.60;;;;;;5095249;28;20055;-62
2021/04/17 18:23:53;;;;;;;17.58;13.77;;;307.20;1561.60;;;;;;5095705;28;20028;-61
2021/04/17 18:26:19;;;;;;;18.45;14.32;;;307.20;1561.60;;;;;;5096466;28;20115;-62
2021/04/17 18:28:44;;;;;;;27.05;17.90;;;307.20;1561.60;;;;;;5095746;28;20114;-62
2021/04/17 18:31:12;;;;;;;45.00;27.80;;;307.20;1561.60;;;;;;5095410;28;20112;-63
2021/04/17 18:33:38;;;;;;;34.25;22.40;;;282.50;1561.60;;;;;;5093501;28;20382;-61
2021/04/17 18:36:04;;;;;;;39.30;26.40;;;282.50;1561.60;;;;;;5096026;28;20024;-62
2021/04/17 18:38:30;;;;;;;27.50;19.95;;;282.50;1561.60;;;;;;5096864;28;20046;-63
2021/04/17 18:40:56;;;;;;;25.05;17.73;;;282.40;1561.60;;;;;;5095538;28;20537;-64
2021/04/17 18:43:22;;;;;;;23.77;17.02;;;282.30;1587.20;;;;;;5096443;28;20024;-63
2021/04/17 18:45:47;;;;;;;21.42;16.85;;;282.30;1587.20;;;;;;5094808;28;20470;-62
2021/04/17 18:48:13;;;;;;;24.85;17.58;;;282.30;1587.20;;;;;;5093721;28;20020;-64
2021/04/17 18:50:39;;;;;;;25.73;18.70;;;282.30;1587.20;;;;;;5095502;28;20020;-63
2021/04/17 18:53:05;;;;;;;23.92;17.77;;;282.30;1587.20;;;;;;5094157;28;20051;-64
2021/04/17 18:55:32;;;;;;;24.83;17.95;;;282.20;1612.80;;;;;;5094931;28;20063;-65
2021/04/17 18:57:58;;;;;;;23.45;18.10;;;282.20;1612.80;;;;;;5095480;28;20107;-64
2021/04/17 19:00:25;;;;;;;22.17;18.30;;;282.20;1638.40;;;;;;5095286;28;20429;-64
2021/04/17 19:02:51;;;;;;;25.23;17.75;;;282.20;1638.40;;;;;;5093127;28;20047;-67
2021/04/17 19:05:18;;;;;;;21.15;16.63;;;282.20;1638.40;;;;;;5093452;28;20024;-63
2021/04/17 19:07:44;;;;;;;23.73;18.50;;;282.10;1638.40;;;;;;5092884;28;20047;-63
2021/04/17 19:10:12;;;;;;;22.23;16.45;;;282.10;1664.00;;;;;;5090930;28;20050;-63
2021/04/17 19:12:38;;;;;;;22.25;16.10;;;282.10;1638.40;;;;;;5094706;28;20039;-62
2021/04/17 19:15:05;;;;;;;20.73;16.52;;;282.10;1664.00;;;;;;5094938;28;20024;-62
2021/04/17 19:17:31;;;;;;;21.90;14.88;;;282.10;1664.00;;;;;;5091626;28;20031;-65
2021/04/17 19:19:56;;;;;;;19.17;14.55;;;282.10;1664.00;;;;;;5093999;28;20040;-65
2021/04/17 19:22:23;;;;;;;20.58;15.27;;;282.10;1664.00;;;;;;5093854;28;20040;-63
2021/04/17 19:24:49;;;;;;;18.13;15.15;;;282.10;1689.60;;;;;;5091442;28;20032;-63
2021/04/17 19:27:15;;;;;;;18.27;15.10;;;282.10;1689.60;;;;;;5094440;28;20030;-62
2021/04/17 19:29:42;;;;;;;18.02;14.85;;;282.10;1689.60;;;;;;5094800;28;20470;-62
2021/04/17 19:32:08;;;;;;;17.13;14.05;;;282.00;1689.60;;;;;;5093400;28;20457;-65
2021/04/17 19:34:34;;;;;;;18.27;14.27;;;282.00;1689.60;;;;;;5094661;28;20016;-65
2021/04/17 19:37:04;;;;;;;17.27;14.80;;;282.00;1689.60;;;;;;5094344;28;20107;-65
2021/04/17 19:39:31;;;;;;;18.35;15.32;;;282.00;1689.60;;;;;;5093761;28;20040;-62
2021/04/17 19:41:56;;;;;;;20.13;15.32;;;282.00;1689.60;;;;;;5094470;28;20036;-61
2021/04/17 19:44:22;;;;;;;21.90;17.60;;;282.00;1689.60;;;;;;5094728;28;20024;-62
2021/04/17 19:46:48;;;;;;;25.17;19.00;;;282.00;1689.60;;;;;;5092838;28;20097;-61
2021/04/17 19:49:14;;;;;;;25.42;19.80;;;282.00;1715.20;;;;;;5093142;28;20034;-62
2021/04/17 19:51:40;;;;;;;27.20;18.55;;;282.00;1740.80;;;;;;5093395;28;20028;-62
2021/04/17 19:54:06;;;;;;;21.98;17.80;;;281.90;1740.80;;;;;;5092320;28;20034;-62
2021/04/17 19:56:32;;;;;;;21.90;17.77;;;282.00;1740.80;;;;;;5093665;28;20122;-64
2021/04/17 19:58:58;;;;;;;20.73;16.50;;;281.90;1715.20;;;;;;5093739;28;20469;-65
2021/04/17 20:01:23;;;;;;;23.10;17.55;;;282.00;1715.20;;;;;;5091867;28;20044;-63
2021/04/17 20:03:49;;;;;;;19.15;16.75;;;281.90;1740.80;;;;;;5091781;28;20077;-62
2021/04/17 20:06:15;;;;;;;22.02;16.58;;;281.90;1766.40;;;;;;5093138;28;20032;-67
2021/04/17 20:08:41;;;;;;;20.95;17.88;;;281.80;1766.40;;;;;;5091581;28;20020;-65
2021/04/17 20:11:07;;;;;;;21.33;17.25;;;281.80;1766.40;;;;;;5092894;28;20024;-66
2021/04/17 20:13:32;;;;;;;20.10;16.52;;;281.60;1792.00;;;;;;5092883;28;20031;-65
2021/04/17 20:15:58;;;;;;;23.48;17.90;;;281.60;1766.40;;;;;;5092250;28;20435;-65
2021/04/17 20:18:24;;;;;;;32.38;24.15;;;281.60;1766.40;;;;;;5092218;28;20028;-62
2021/04/17 20:20:50;;;;;;;36.15;25.02;;;281.60;1792.00;;;;;;5091940;28;20051;-63
2021/04/17 20:23:16;;;;;;;31.38;21.98;;;281.60;1792.00;;;;;;5093066;28;20024;-66
2021/04/17 20:25:43;;;;;;;35.47;21.10;;;281.60;1766.40;;;;;;5093488;28;20020;-62
2021/04/17 20:28:09;;;;;;;28.13;21.52;;;281.60;1792.00;;;;;;5092768;28;20028;-63
2021/04/17 20:30:35;;;;;;;30.48;20.70;;;281.60;1766.40;;;;;;5091147;28;20027;-67
2021/04/17 20:33:00;;;;;;;28.83;20.75;;;281.80;1766.40;;;;;;5092174;28;20036;-65
2021/04/17 20:35:26;;;;;;;30.98;20.35;;;281.70;1766.40;;;;;;5092355;28;20036;-66
2021/04/17 20:37:52;;;;;;;25.42;19.42;;;281.70;1766.40;;;;;;5092065;28;20058;-62
2021/04/17 20:40:18;;;;;;;24.20;19.17;;;281.80;1766.40;;;;;;5092079;28;20051;-67
2021/04/17 20:42:43;;;;;;;23.38;18.60;;;281.70;1766.40;;;;;;5091468;28;20024;-64
2021/04/17 20:45:10;;;;;;;22.65;18.50;;;281.80;1766.40;;;;;;5092587;28;20058;-62
2021/04/17 20:47:35;;;;;;;21.75;17.55;;;281.80;1766.40;;;;;;5093235;28;20043;-65
2021/04/17 20:50:01;;;;;;;23.42;17.83;;;281.70;1766.40;;;;;;5093085;28;20050;-63
2021/04/17 20:52:28;;;;;;;23.30;18.50;;;281.70;1740.80;;;;;;5092477;28;20026;-65
2021/04/17 20:54:54;;;;;;;22.83;18.30;;;281.80;1766.40;;;;;;5092568;28;20054;-64
2021/04/17 20:57:19;;;;;;;25.83;19.38;;;281.70;1766.40;;;;;;5091776;28;20112;-66
2021/04/17 20:59:46;;;;;;;22.33;18.80;;;281.70;1792.00;;;;;;5092284;28;20024;-62
2021/04/17 21:02:13;;;;;;;26.63;21.70;;;281.60;1792.00;;;;;;5093045;28;20378;-65
2021/04/17 21:04:38;;;;;;;28.27;20.08;;;281.60;1792.00;;;;;;5092957;28;20386;-65
2021/04/17 21:07:04;;;;;;;28.45;21.05;;;281.60;1792.00;;;;;;5092425;28;20024;-61
2021/04/17 21:09:30;;;;;;;28.77;21.60;;;256.90;1792.00;;;;;;5093159;28;20025;-65
2021/04/17 21:11:56;;;;;;;26.95;20.83;;;256.80;1792.00;;;;;;5092562;28;20476;-64
2021/04/17 21:14:22;;;;;;;26.38;21.60;;;256.80;1817.60;;;;;;5092594;28;20055;-65
2021/04/17 21:16:47;;;;;;;31.10;22.02;;;256.80;1817.60;;;;;;5093107;28;20351;-63
2021/04/17 21:19:13;;;;;;;31.63;22.42;;;256.80;1817.60;;;;;;5092697;28;20133;-63
2021/04/17 21:21:40;;;;;;;35.25;23.55;;;256.70;1843.20;;;;;;5092377;28;20086;-65
2021/04/17 21:24:07;;;;;;;29.50;23.17;;;256.70;1843.20;;;;;;5092840;28;20020;-63
2021/04/17 21:26:32;;;;;;;32.47;25.60;;;256.70;1843.20;;;;;;5092545;28;20028;-62
2021/04/17 21:28:58;;;;;;;36.50;26.42;;;256.70;1843.20;;;;;;5091846;28;20020;-64
2021/04/17 21:31:24;;;;;;;37.60;27.70;;;256.70;1843.20;;;;;;5092562;28;20370;-65
2021/04/17 21:33:50;;;;;;;41.60;28.77;;;256.70;1843.20;;;;;;5092769;28;20471;-62
2021/04/17 21:36:25;;;;;;;42.92;29.20;;;256.60;1868.80;;;;;;5092425;28;20024;-62
2021/04/17 21:38:53;;;;;;;36.53;27.25;;;256.60;1843.20;;;;;;5092330;28;20056;-69
2021/04/17 21:41:20;;;;;;;44.92;28.83;;;256.60;1843.20;;;;;;5091881;28;20031;-64
2021/04/17 21:43:46;;;;;;;55.55;33.80;;;256.60;1868.80;;;;;;5095133;28;20020;-64
2021/04/17 21:46:13;;;;;;;61.90;36.42;;;256.50;1868.80;;;;;;5096240;28;20073;-67
2021/04/17 21:48:38;;;;;;;50.20;32.85;;;256.60;1868.80;;;;;;5095801;28;20035;-62
2021/04/17 21:51:04;;;;;;;46.55;32.53;;;256.50;1868.80;;;;;;5096034;28;20028;-65
2021/04/17 21:53:31;;;;;;;43.00;29.98;;;256.50;1868.80;;;;;;5096237;28;20031;-63
2021/04/17 21:55:59;;;;;;;38.55;28.23;;;256.50;1868.80;;;;;;5096279;28;20020;-66
2021/04/17 21:58:25;;;;;;;40.88;30.35;;;256.50;1868.80;;;;;;5097372;28;20032;-62
2021/04/17 22:00:52;;;;;;;40.35;28.15;;;256.40;1894.40;;;;;;5097189;28;20069;-61
2021/04/17 22:03:19;;;;;;;45.53;30.42;;;256.30;1894.40;;;;;;5094431;28;20028;-63
2021/04/17 22:05:47;;;;;;;55.78;36.72;;;256.40;1868.80;;;;;;5095923;28;20024;-65
2021/04/17 22:08:14;;;;;;;62.63;39.90;;;256.40;1894.40;;;;;;5096943;28;20020;-66
2021/04/17 22:10:40;;;;;;;48.65;33.03;;;256.30;1894.40;;;;;;5096384;28;20089;-63
2021/04/17 22:13:07;;;;;;;43.65;29.92;;;256.30;1894.40;;;;;;5096185;28;21077;-66
2021/04/17 22:15:34;;;;;;;44.35;28.80;;;256.30;1920.00;;;;;;5096675;28;20043;-65
2021/04/17 22:18:00;;;;;;;41.20;27.52;;;256.30;1894.40;;;;;;5097289;28;20462;-64
2021/04/17 22:20:26;;;;;;;33.10;24.75;;;256.20;1920.00;;;;;;5096302;28;20040;-66
2021/04/17 22:22:52;;;;;;;39.00;27.15;;;256.30;1894.40;;;;;;5095722;28;20477;-61
2021/04/17 22:25:19;;;;;;;39.88;26.65;;;256.30;1920.00;;;;;;5094319;28;20032;-64
2021/04/17 22:27:46;;;;;;;40.92;27.35;;;256.30;1920.00;;;;;;5095588;28;20039;-63
2021/04/17 22:30:13;;;;;;;38.42;26.35;;;256.30;1920.00;;;;;;5096034;28;20026;-61
2021/04/17 22:32:39;;;;;;;40.70;26.33;;;256.30;1920.00;;;;;;5096391;28;20027;-66
2021/04/17 22:35:06;;;;;;;33.75;26.33;;;256.20;1920.00;;;;;;5095793;28;20107;-66
2021/04/17 22:37:36;;;;;;;33.28;23.75;;;256.20;1920.00;;;;;;5095838;28;20123;-66
2021/04/17 22:40:07;;;;;;;32.88;24.25;;;256.20;1920.00;;;;;;5094191;28;20118;-66
2021/04/17 22:42:33;;;;;;;42.13;26.08;;;256.20;1920.00;;;;;;5094510;28;20052;-62
2021/04/17 22:44:59;;;;;;;36.72;25.38;;;256.20;1920.00;;;;;;5095156;28;20028;-65
2021/04/17 22:47:24;;;;;;;34.58;25.08;;;256.20;1920.00;;;;;;5093492;28;20095;-67
2021/04/17 22:49:50;;;;;;;47.38;28.02;;;256.20;1920.00;;;;;;5095853;28;20093;-69
2021/04/17 22:52:16;;;;;;;51.10;31.55;;;256.20;1920.00;;;;;;5095218;28;20028;-66
2021/04/17 22:54:42;;;;;;;58.80;31.85;;;256.20;1920.00;;;;;;5095147;28;20035;-67
2021/04/17 22:57:08;;;;;;;64.82;34.90;;;256.20;1920.00;;;;;;5095375;28;20405;-65
2021/04/17 22:59:35;;;;;;;62.30;35.65;;;256.20;1920.00;;;;;;5093246;28;20032;-67
2021/04/17 23:02:01;;;;;;;54.50;32.97;;;256.20;1920.00;;;;;;5095561;28;20040;-66
2021/04/17 23:04:27;;;;;;;42.67;28.55;;;256.20;1894.40;;;;;;5096248;28;20030;-62
2021/04/17 23:06:53;;;;;;;39.50;27.70;;;256.10;1920.00;;;;;;5095660;28;20040;-64
2021/04/17 23:09:18;;;;;;;51.60;30.98;;;256.10;1920.00;;;;;;5095223;28;20046;-66
2021/04/17 23:11:44;;;;;;;41.78;28.13;;;256.10;1920.00;;;;;;5095106;28;20024;-62
2021/04/17 23:14:10;;;;;;;36.03;25.52;;;256.10;1920.00;;;;;;5094966;28;20024;-66
2021/04/17 23:16:35;;;;;;;34.70;24.05;;;256.10;1945.60;;;;;;5094447;28;20478;-66
2021/04/17 23:19:04;;;;;;;34.42;23.63;;;256.00;1945.60;;;;;;5095168;28;20024;-66
2021/04/17 23:21:30;;;;;;;47.13;30.73;;;256.00;1945.60;;;;;;5092773;28;20040;-65
2021/04/17 23:23:56;;;;;;;47.03;29.30;;;256.00;1945.60;;;;;;5095196;28;20046;-66
2021/04/17 23:26:22;;;;;;;45.55;29.83;;;256.00;1945.60;;;;;;5095082;28;20070;-65
2021/04/17 23:28:47;;;;;;;37.42;26.90;;;256.00;1945.60;;;;;;5095479;28;20028;-64
2021/04/17 23:31:13;;;;;;;37.83;27.30;;;256.00;1971.20;;;;;;5095240;28;20401;-63
2021/04/17 23:33:39;;;;;;;35.47;27.67;;;256.00;1971.20;;;;;;5095118;28;20046;-66
2021/04/17 23:36:05;;;;;;;43.03;30.25;;;256.00;1971.20;;;;;;5094757;28;20469;-63
2021/04/17 23:38:31;;;;;;;42.42;27.52;;;256.00;1971.20;;;;;;5095324;28;20477;-63
2021/04/17 23:40:57;;;;;;;37.67;27.85;;;256.00;1971.20;;;;;;5095170;28;20051;-64
2021/04/17 23:43:22;;;;;;;38.80;28.70;;;231.30;1971.20;;;;;;5094712;28;20084;-64
2021/04/17 23:45:48;;;;;;;41.60;30.98;;;256.00;1971.20;;;;;;5094752;28;20373;-64
2021/04/17 23:48:14;;;;;;;37.65;28.27;;;231.30;1971.20;;;;;;5094716;28;20030;-63
2021/04/17 23:50:39;;;;;;;37.65;28.13;;;231.30;1971.20;;;;;;5094628;28;20032;-62
2021/04/17 23:53:05;;;;;;;40.78;29.98;;;231.30;1971.20;;;;;;5094554;28;20115;-67
2021/04/17 23:55:31;;;;;;;42.20;31.55;;;231.30;1971.20;;;;;;5091930;28;20054;-65
2021/04/17 23:57:57;;;;;;;42.40;32.13;;;231.20;1996.80;;;;;;5094559;28;20048;-62
